Time;durP1;ratioP1;P1;durP2;ratioP2;P2;SDS_P1;SDS_P2;PMS_P1;PMS_P2;Temp;Humidity;BMP_temperature;BMP_pressure;BME280_temperature;BME280_humidity;BME280_pressure;Samples;Min_cycle;Max_cycle;Signal;HPM_P1;HPM_P2
2021/12/01 00:02:22;;;;;;;;;;;;;;;;;;5062235;28;19942;-79
2021/12/01 00:04:48;;;;;;;;;;;;;;;;;;5079371;28;19919;-79
2021/12/01 00:07:14;;;;;;;;;;;;;;;;;;5078377;28;19936;-79
2021/12/01 00:09:39;;;;;;;;;;;;;;;;;;5062187;28;19949;-79
2021/12/01 00:12:05;;;;;;;;;;;;;;;;;;5061607;28;20332;-79
2021/12/01 00:14:31;;;;;;;;;;;;;;;;;;5063507;28;19909;-78
2021/12/01 00:16:57;;;;;;;;;;;;;;;;;;5078543;28;20005;-79
2021/12/01 00:19:23;;;;;;;;;;;;;;;;;;5079000;28;19993;-79
2021/12/01 00:21:48;;;;;;;;;;;;;;;;;;5078104;28;19941;-79
2021/12/01 00:24:15;;;;;;;;;;;;;;;;;;5060860;28;19908;-79
2021/12/01 00:26:41;;;;;;;;;;;;;;;;;;5061392;28;19938;-79
2021/12/01 00:29:07;;;;;;;;;;;;;;;;;;5078669;28;19975;-79
2021/12/01 00:31:32;;;;;;;;;;;;;;;;;;5078890;28;20352;-78
2021/12/01 00:33:58;;;;;;;;;;;;;;;;;;5062164;28;19916;-78
2021/12/01 00:36:24;;;;;;;;;;;;;;;;;;5078374;28;19938;-78
2021/12/01 00:38:50;;;;;;;;;;;;;;;;;;5061113;28;19951;-79
2021/12/01 00:41:18;;;;;;;;;;;;;;;;;;5077306;28;20225;-78
2021/12/01 00:43:43;;;;;;;;;;;;;;;;;;5077654;28;19909;-79
2021/12/01 00:46:14;;;;;;;;;;;;;;;;;;5077076;28;19941;-78
2021/12/01 00:48:40;;;;;;;;;;;;;;;;;;5060287;28;19915;-78
2021/12/01 00:51:06;;;;;;;;;;;;;;;;;;5078119;28;20223;-78
2021/12/01 00:53:31;;;;;;;;;;;;;;;;;;5060488;28;19965;-78
2021/12/01 00:55:57;;;;;;;;;;;;;;;;;;5078914;28;20056;-78
2021/12/01 00:58:23;;;;;;;;;;;;;;;;;;5078600;28;20252;-79
2021/12/01 01:00:49;;;;;;;;;;;;;;;;;;5077645;28;19941;-79
2021/12/01 01:03:15;;;;;;;;;;;;;;;;;;5060394;28;19974;-78
2021/12/01 01:05:41;;;;;;;;;;;;;;;;;;5079167;28;20325;-78
2021/12/01 01:08:07;;;;;;;;;;;;;;;;;;5086447;28;19926;-78
2021/12/01 01:18:34;;;;;;;;;;;;;;;;;;5065017;28;19950;-79
2021/12/01 01:21:00;;;;;;;;;;;;;;;;;;5063956;28;19927;-78
2021/12/01 01:23:29;;;;;;;;;;;;;;;;;;5064444;28;19908;-78
2021/12/01 01:25:55;;;;;;;;;;;;;;;;;;5064383;28;20017;-79
2021/12/01 01:28:21;;;;;;;;;;;;;;;;;;5063126;28;19947;-78
2021/12/01 01:30:48;;;;;;;;;;;;;;;;;;5062561;28;19913;-79
2021/12/01 01:33:13;;;;;;;;;;;;;;;;;;5063590;28;20218;-79
2021/12/01 01:35:41;;;;;;;;;;;;;;;;;;5062224;28;19909;-78
2021/12/01 01:38:10;;;;;;;;;;;;;;;;;;5063086;28;19916;-78
2021/12/01 01:40:37;;;;;;;;;;;;;;;;;;5078296;28;20256;-78
2021/12/01 01:43:04;;;;;;;;;;;;;;;;;;5077902;28;19977;-78
2021/12/01 01:45:31;;;;;;;;;;;;;;;;;;5061234;28;19945;-78
2021/12/01 01:48:03;;;;;;;;;;;;;;;;;;5077985;28;19994;-78
2021/12/01 01:50:36;;;;;;;;;;;;;;;;;;5078597;28;19915;-77
2021/12/01 01:53:02;;;;;;;;;;;;;;;;;;5078551;28;19934;-78
2021/12/01 01:55:28;;;;;;;;;;;;;;;;;;5060935;28;19933;-77
2021/12/01 01:57:54;;;;;;;;;;;;;;;;;;5079256;28;20049;-78
2021/12/01 02:00:19;;;;;;;;;;;;;;;;;;5079096;28;19935;-79
2021/12/01 02:02:46;;;;;;;;;;;;;;;;;;5077792;28;19950;-78
2021/12/01 02:05:13;;;;;;;;;;;;;;;;;;5060936;28;19972;-78
2021/12/01 02:07:39;;;;;;;;;;;;;;;;;;5060687;28;20321;-78
2021/12/01 02:10:04;;;;;;;;;;;;;;;;;;5078730;28;19969;-78
2021/12/01 02:12:30;;;;;;;;;;;;;;;;;;5060071;28;20306;-78
2021/12/01 02:14:56;;;;;;;;;;;;;;;;;;5060542;28;20286;-78
2021/12/01 02:17:22;;;;;;;;;;;;;;;;;;5060948;28;20006;-78
2021/12/01 02:19:48;;;;;;;;;;;;;;;;;;5061166;28;19973;-78
2021/12/01 02:22:14;;;;;;;;;;;;;;;;;;5077391;28;19912;-78
2021/12/01 02:24:43;;;;;;;;;;;;;;;;;;5060033;28;20298;-77
2021/12/01 02:27:11;;;;;;;;;;;;;;;;;;5060197;28;19961;-78
2021/12/01 02:29:37;;;;;;;;;;;;;;;;;;5078333;28;19939;-78
2021/12/01 02:32:04;;;;;;;;;;;;;;;;;;5078656;28;19973;-78
2021/12/01 02:34:39;;;;;;;;;;;;;;;;;;5060655;28;19938;-78
2021/12/01 02:37:04;;;;;;;;;;;;;;;;;;5060355;28;19946;-79
2021/12/01 02:39:31;;;;;;;;;;;;;;;;;;5060819;28;19920;-78
2021/12/01 02:41:57;;;;;;;;;;;;;;;;;;5060292;28;20348;-77
2021/12/01 02:44:25;;;;;;;;;;;;;;;;;;5060089;28;19954;-78
2021/12/01 02:46:51;;;;;;;;;;;;;;;;;;5075338;28;19915;-78
2021/12/01 02:49:17;;;;;;;;;;;;;;;;;;5075809;28;19941;-77
2021/12/01 02:51:48;;;;;;;;;;;;;;;;;;5058374;28;20370;-77
2021/12/01 02:54:15;;;;;;;;;;;;;;;;;;5059041;28;19922;-78
2021/12/01 02:56:45;;;;;;;;;;;;;;;;;;5055695;28;20343;-77
2021/12/01 02:59:23;;;;;;;;;;;;;;;;;;5058487;28;19948;-78
2021/12/01 03:01:55;;;;;;;;;;;;;;;;;;5058207;28;20355;-82
2021/12/01 03:04:23;;;;;;;;;;;;;;;;;;5058640;28;19920;-80
2021/12/01 03:06:52;;;;;;;;;;;;;;;;;;5074158;28;19941;-79
2021/12/01 03:09:21;;;;;;;;;;;;;;;;;;5131653;22;19993;-77
2021/12/01 03:12:08;;;;;;;;;;;;;;;;;;5046537;28;19908;-80
2021/12/01 03:14:51;;;;;;;;;;;;;;;;;;5201540;22;19954;-78
2021/12/01 03:17:18;;;;;;;;;;;;;;;;;;5059659;28;19938;-77
2021/12/01 03:19:48;;;;;;;;;;;;;;;;;;5061333;28;19942;-77
2021/12/01 03:22:15;;;;;;;;;;;;;;;;;;5078420;28;19947;-82
2021/12/01 03:25:02;;;;;;;;;;;;;;;;;;;;;
2021/12/01 03:27:40;;;;;;;;;;;;;;;;;;5080425;28;19948;-78
2021/12/01 03:30:22;;;;;;;;;;;;;;;;;;5081326;28;19999;-80
2021/12/01 03:56:53;;;;;;;47.72;21.42;;;;;;;;;;5072397;22;20057;-79
2021/12/01 03:59:19;;;;;;;46.35;24.35;;;;;;;;;;5055323;28;20064;-79
2021/12/01 04:01:45;;;;;;;45.42;24.15;;;;;;;;;;5097392;22;20450;-81
2021/12/01 04:04:14;;;;;;;58.05;22.35;;;;;;;;;;5074151;28;20097;-78
2021/12/01 04:06:41;;;;;;;49.80;21.42;;;;;;;;;;5054430;28;20385;-79
2021/12/01 04:09:08;;;;;;;48.17;23.92;;;;;;;;;;5037069;28;20029;-79
2021/12/01 04:11:34;;;;;;;40.08;24.58;;;;;;;;;;5054007;28;20402;-79
2021/12/01 04:14:01;;;;;;;42.80;22.77;;;;;;;;;;5071456;28;20317;-80
2021/12/01 04:16:28;;;;;;;49.03;20.50;;;;;;;;;;5036096;28;20454;-80
2021/12/01 04:18:57;;;;;;;32.70;18.77;;;;;;;;;;5035836;28;20055;-79
2021/12/01 04:21:25;;;;;;;41.63;18.73;;;;;;;;;;5053140;28;20023;-79
2021/12/01 04:23:53;;;;;;;36.25;17.15;;;;;;;;;;5051774;28;20013;-78
2021/12/01 04:26:23;;;;;;;35.47;18.00;;;;;;;;;;5043108;28;20067;-79
2021/12/01 04:28:50;;;;;;;33.83;15.73;;;;;;;;;;5014953;28;20013;-79
2021/12/01 04:31:18;;;;;;;34.90;16.45;;;;;;;;;;5053103;28;20052;-78
2021/12/01 04:33:47;;;;;;;35.40;15.55;;;;;;;;;;5037050;28;20013;-79
2021/12/01 04:36:31;;;;;;;31.70;17.55;;;;;;;;;;5053420;28;20037;-79
2021/12/01 04:38:59;;;;;;;32.38;15.65;;;;;;;;;;5040200;28;20044;-79
2021/12/01 04:44:01;;;;;;;26.63;12.32;;;;;;;;;;5057447;22;20055;-81
2021/12/01 04:46:27;;;;;;;28.98;7.32;;;;;;;;;;5035760;28;20041;-79
2021/12/01 04:48:54;;;;;;;17.08;6.55;;;;;;;;;;5041630;28;20427;-79
2021/12/01 04:51:26;;;;;;;17.92;7.95;;;;;;;;;;5019883;28;20037;-78
2021/12/01 04:53:52;;;;;;;24.65;9.25;;;;;;;;;;5019555;28;20400;-79
2021/12/01 04:56:21;;;;;;;21.17;8.18;;;;;;;;;;5002104;28;20041;-78
2021/12/01 04:58:52;;;;;;;64.00;30.60;;;;;;;;;;5020184;28;20083;-80
2021/12/01 05:01:31;;;;;;;95.07;38.35;;;;;;;;;;5019511;28;20022;-80
2021/12/01 05:04:05;;;;;;;90.63;42.08;;;;;;;;;;5020830;28;20030;-80
2021/12/01 05:06:35;;;;;;;77.95;34.28;;;;;;;;;;5033467;23;20046;-80
2021/12/01 05:09:05;;;;;;;87.03;38.08;;;;;;;;;;5020771;28;20348;-80
2021/12/01 05:11:31;;;;;;;71.63;38.13;;;;;;;;;;5019242;28;20135;-79
2021/12/01 05:13:58;;;;;;;83.50;39.95;;;;;;;;;;5039058;28;20432;-79
2021/12/01 05:16:24;;;;;;;102.05;50.65;;;;;;;;;;5005024;28;20037;-80
2021/12/01 05:18:52;;;;;;;114.93;56.17;;;;;;;;;;5054688;23;20431;-79
2021/12/01 05:21:25;;;;;;;46.45;20.10;;;;;;;;;;5004970;28;20025;-79
2021/12/01 05:23:52;;;;;;;47.33;24.05;;;;;;;;;;5004351;28;20093;-79
2021/12/01 05:26:19;;;;;;;51.63;25.55;;;;;;;;;;5005174;28;20018;-80
2021/12/01 05:28:46;;;;;;;43.08;19.52;;;;;;;;;;5004472;28;20028;-80
2021/12/01 05:31:13;;;;;;;34.47;12.90;;;;;;;;;;5004009;28;20075;-80
2021/12/01 05:33:40;;;;;;;20.60;10.13;;;;;;;;;;5003674;28;20033;-80
2021/12/01 05:36:09;;;;;;;25.63;8.23;;;;;;;;;;5037674;28;20053;-79
2021/12/01 05:38:38;;;;;;;18.63;8.85;;;;;;;;;;5020900;28;20105;-79
2021/12/01 05:41:06;;;;;;;14.75;8.43;;;;;;;;;;5032225;23;20532;-79
2021/12/01 05:43:36;;;;;;;16.70;7.25;;;;;;;;;;5017112;23;20322;-80
2021/12/01 05:46:09;;;;;;;13.68;6.35;;;;;;;;;;5018911;28;20052;-80
2021/12/01 05:48:40;;;;;;;21.00;7.57;;;;;;;;;;5019236;28;20029;-80
2021/12/01 05:51:10;;;;;;;27.05;8.77;;;;;;;;;;5003228;28;20195;-80
2021/12/01 05:53:37;;;;;;;22.98;8.27;;;;;;;;;;5019855;28;20362;-81
2021/12/01 05:56:09;;;;;;;28.30;9.00;;;;;;;;;;5017068;28;20045;-78
2021/12/01 05:58:37;;;;;;;32.97;11.70;;;;;;;;;;5006602;23;20427;-79
2021/12/01 06:01:03;;;;;;;40.75;15.85;;;;;;;;;;5017513;28;20069;-79
2021/12/01 06:03:30;;;;;;;50.65;16.83;;;;;;;;;;5056197;23;20117;-80
2021/12/01 06:05:57;;;;;;;44.47;15.80;;;;;;;;;;5022379;23;20055;-79
2021/12/01 06:08:25;;;;;;;16.73;6.32;;;;;;;;;;5016434;28;20202;-79
2021/12/01 06:10:52;;;;;;;16.23;7.82;;;;;;;;;;5029357;23;20046;-80
2021/12/01 06:13:20;;;;;;;27.20;8.65;;;;;;;;;;5086754;22;20087;-79
2021/12/01 06:15:49;;;;;;;23.20;7.75;;;;;;;;;;5035610;28;20032;-79
2021/12/01 06:18:18;;;;;;;23.25;6.72;;;;;;;;;;5017981;28;20044;-80
2021/12/01 06:20:46;;;;;;;24.90;7.13;;;;;;;;;;5025492;23;20053;-80
2021/12/01 06:23:15;;;;;;;22.17;7.40;;;;;;;;;;5037220;28;20021;-78
2021/12/01 06:25:42;;;;;;;19.00;7.32;;;;;;;;;;5033371;28;20029;-79
2021/12/01 06:28:08;;;;;;;20.20;7.68;;;;;;;;;;5034850;28;20017;-79
2021/12/01 06:30:41;;;;;;;25.30;8.10;;;;;;;;;;5034572;28;20070;-79
2021/12/01 06:33:07;;;;;;;22.73;6.40;;;;;;;;;;5034942;28;20021;-81
2021/12/01 06:35:34;;;;;;;16.15;6.38;;;;;;;;;;5035580;28;20104;-80
2021/12/01 06:38:03;;;;;;;19.30;6.72;;;;;;;;;;5040727;23;20049;-79
2021/12/01 06:40:31;;;;;;;16.50;5.97;;;;;;;;;;5002134;28;20032;-79
2021/12/01 06:42:58;;;;;;;17.85;7.88;;;;;;;;;;5037103;28;20017;-79
2021/12/01 06:45:25;;;;;;;22.33;7.80;;;;;;;;;;5036411;28;20067;-80
2021/12/01 06:47:54;;;;;;;22.70;6.70;;;;;;;;;;5017401;28;20025;-79
2021/12/01 06:50:23;;;;;;;17.05;8.05;;;;;;;;;;5036784;28;20032;-79
2021/12/01 06:52:50;;;;;;;26.70;6.40;;;;;;;;;;5006918;23;20041;-78
2021/12/01 06:55:16;;;;;;;15.98;6.53;;;;;;;;;;5017423;28;20036;-79
2021/12/01 06:57:42;;;;;;;26.90;7.40;;;;;;;;;;5034852;28;20056;-79
2021/12/01 07:00:10;;;;;;;29.40;10.65;;;;;;;;;;5035713;28;20021;-79
2021/12/01 07:02:44;;;;;;;33.65;6.82;;;;;;;;;;5035411;28;20016;-80
2021/12/01 07:05:11;;;;;;;24.48;6.93;;;;;;;;;;5000104;28;20018;-80
2021/12/01 07:07:38;;;;;;;17.10;4.75;;;;;;;;;;5030555;23;20057;-80
2021/12/01 07:10:11;;;;;;;15.52;5.25;;;;;;;;;;5036380;28;20040;-80
2021/12/01 07:12:37;;;;;;;12.43;4.13;;;;;;;;;;5035989;28;20040;-79
2021/12/01 07:15:04;;;;;;;15.63;7.10;;;;;;;;;;5002454;28;20029;-78
2021/12/01 07:17:47;;;;;;;16.52;5.47;;;;;;;;;;5019540;28;20090;-79
2021/12/01 07:20:15;;;;;;;23.92;6.82;;;;;;;;;;5017412;28;20047;-79
2021/12/01 07:22:42;;;;;;;15.43;5.28;;;;;;;;;;5000658;28;20354;-79
2021/12/01 07:25:10;;;;;;;26.38;6.57;;;;;;;;;;5016238;28;20428;-79
2021/12/01 07:27:36;;;;;;;15.52;6.85;;;;;;;;;;5033509;28;20018;-79
2021/12/01 07:30:02;;;;;;;19.58;6.47;;;;;;;;;;5016265;28;20171;-80
2021/12/01 07:32:28;;;;;;;21.20;7.25;;;;;;;;;;5089818;23;20053;-79
2021/12/01 07:34:56;;;;;;;22.92;6.75;;;;;;;;;;5033820;28;20017;-79
2021/12/01 07:37:22;;;;;;;36.28;10.70;;;;;;;;;;5017685;28;20030;-79
2021/12/01 07:39:51;;;;;;;22.95;11.27;;;;;;;;;;5033538;28;20021;-81
2021/12/01 07:42:18;;;;;;;22.63;8.15;;;;;;;;;;5016709;28;20025;-79
2021/12/01 07:44:44;;;;;;;21.10;8.60;;;;;;;;;;5016540;28;20370;-80
2021/12/01 07:47:13;;;;;;;25.05;9.27;;;;;;;;;;5006496;28;20024;-79
2021/12/01 07:49:40;;;;;;;17.05;8.13;;;;;;;;;;5001354;28;20060;-79
2021/12/01 07:52:09;;;;;;;25.77;10.65;;;;;;;;;;5019677;28;20022;-79
2021/12/01 07:54:39;;;;;;;12.27;7.43;;;;;;;;;;5000002;28;20018;-79
2021/12/01 07:57:08;;;;;;;25.95;9.45;;;;;;;;;;5016951;28;20182;-79
2021/12/01 07:59:35;;;;;;;24.27;8.87;;;;;;;;;;5033709;28;20406;-78
2021/12/01 08:02:02;;;;;;;26.77;9.57;;;;;;;;;;4999101;28;20026;-79
2021/12/01 08:04:28;;;;;;;26.45;8.75;;;;;;;;;;5032823;28;20017;-79
2021/12/01 08:06:55;;;;;;;24.45;9.52;;;;;;;;;;5033061;28;20044;-79
2021/12/01 08:09:23;;;;;;;34.75;12.35;;;;;;;;;;5034209;28;20339;-78
2021/12/01 08:11:52;;;;;;;30.88;14.48;;;;;;;;;;4999017;28;20572;-79
2021/12/01 08:14:18;;;;;;;34.60;14.02;;;;;;;;;;5015691;28;20018;-79
2021/12/01 08:16:45;;;;;;;33.22;14.52;;;;;;;;;;4999328;28;20056;-78
2021/12/01 08:19:11;;;;;;;32.72;17.73;;;;;;;;;;5016635;28;20026;-78
2021/12/01 08:21:37;;;;;;;37.83;17.80;;;;;;;;;;5017492;28;20049;-79
2021/12/01 08:24:07;;;;;;;41.45;15.50;;;;;;;;;;5036525;28;20017;-78
2021/12/01 08:26:36;;;;;;;41.67;16.90;;;;;;;;;;5068561;23;20045;-79
2021/12/01 08:29:02;;;;;;;57.75;20.75;;;;;;;;;;5023124;28;20497;-79
2021/12/01 08:31:28;;;;;;;45.97;18.23;;;;;;;;;;5039416;28;20060;-78
2021/12/01 08:33:54;;;;;;;36.95;16.25;;;;;;;;;;5021565;28;20021;-79
2021/12/01 08:36:20;;;;;;;49.05;17.70;;;;;;;;;;5022129;28;20029;-79
2021/12/01 08:38:50;;;;;;;42.83;14.85;;;;;;;;;;5039208;28;20029;-79
2021/12/01 08:41:21;;;;;;;45.88;16.58;;;;;;;;;;5008040;28;20056;-79
2021/12/01 08:43:49;;;;;;;36.10;16.90;;;;;;;;;;5006904;28;20022;-80
2021/12/01 08:46:17;;;;;;;46.88;19.05;;;;;;;;;;5022362;28;20048;-79
2021/12/01 08:48:44;;;;;;;43.47;20.00;;;;;;;;;;5022813;28;20105;-79
2021/12/01 08:51:14;;;;;;;53.05;18.55;;;;;;;;;;5038733;28;20028;-79
2021/12/01 08:53:45;;;;;;;36.60;16.77;;;;;;;;;;5005342;28;20376;-79
2021/12/01 08:56:12;;;;;;;44.42;16.70;;;;;;;;;;5020586;28;20443;-79
2021/12/01 08:58:42;;;;;;;38.90;18.20;;;;;;;;;;5021246;28;20018;-79
2021/12/01 09:01:11;;;;;;;37.03;18.30;;;;;;;;;;5021808;28;20024;-78
2021/12/01 09:03:37;;;;;;;36.25;17.17;;;;;;;;;;5021918;28;20026;-79
2021/12/01 09:06:04;;;;;;;30.30;14.00;;;;;;;;;;5039341;28;20041;-79
2021/12/01 09:08:30;;;;;;;51.90;19.73;;;;;;;;;;5006051;28;20550;-80
2021/12/01 09:10:59;;;;;;;35.70;18.65;;;;;;;;;;5027974;23;20021;-80
2021/12/01 09:13:26;;;;;;;43.15;15.48;;;;;;;;;;5062973;23;20053;-79
2021/12/01 09:15:53;;;;;;;54.08;18.27;;;;;;;;;;5039154;28;20032;-79
2021/12/01 09:18:20;;;;;;;39.53;16.40;;;;;;;;;;5039523;28;20017;-79
2021/12/01 09:20:46;;;;;;;39.25;15.30;;;;;;;;;;5021709;28;20021;-79
2021/12/01 09:23:12;;;;;;;41.70;15.52;;;;;;;;;;5021313;28;20045;-79
2021/12/01 09:25:38;;;;;;;49.30;17.95;;;;;;;;;;5039258;28;20028;-79
2021/12/01 09:28:04;;;;;;;40.17;16.85;;;;;;;;;;5005650;28;20025;-79
2021/12/01 09:30:34;;;;;;;42.08;17.83;;;;;;;;;;5039465;28;20029;-79
2021/12/01 09:33:00;;;;;;;35.33;16.70;;;;;;;;;;5039036;28;20332;-79
2021/12/01 09:35:28;;;;;;;36.88;16.15;;;;;;;;;;5022633;28;20751;-79
2021/12/01 09:37:54;;;;;;;34.10;15.07;;;;;;;;;;5004676;28;20068;-79
2021/12/01 09:40:23;;;;;;;44.00;17.00;;;;;;;;;;5039223;28;20041;-79
2021/12/01 09:42:51;;;;;;;39.75;15.77;;;;;;;;;;5041478;28;20319;-80
2021/12/01 09:45:20;;;;;;;42.45;14.65;;;;;;;;;;5024265;28;20021;-79
2021/12/01 09:47:46;;;;;;;32.70;16.02;;;;;;;;;;5040170;28;20021;-79
2021/12/01 09:50:12;;;;;;;36.78;15.15;;;;;;;;;;5021788;28;20083;-79
2021/12/01 09:52:38;;;;;;;43.70;15.57;;;;;;;;;;5022049;28;20020;-79
2021/12/01 09:55:06;;;;;;;32.72;14.77;;;;;;;;;;5005558;28;20075;-79
2021/12/01 09:57:32;;;;;;;26.05;13.30;;;;;;;;;;5021468;28;20040;-79
2021/12/01 09:59:59;;;;;;;29.25;13.48;;;;;;;;;;5045123;23;20049;-78
2021/12/01 10:02:27;;;;;;;29.95;13.68;;;;;;;;;;5039144;28;20017;-80
2021/12/01 10:04:54;;;;;;;60.65;17.13;;;;;;;;;;5039062;28;20045;-79
2021/12/01 10:07:23;;;;;;;37.25;15.02;;;;;;;;;;5026934;23;20400;-79
2021/12/01 10:09:56;;;;;;;41.38;16.13;;;;;;;;;;5028418;23;20053;-79
2021/12/01 10:12:23;;;;;;;36.50;14.35;;;;;;;;;;5027003;23;20060;-79
2021/12/01 10:14:51;;;;;;;36.58;16.80;;;;;;;;;;5039404;28;20415;-79
2021/12/01 10:17:31;;;;;;;31.45;13.75;;;;;;;;;;5005013;28;20041;-79
2021/12/01 10:20:11;;;;;;;33.95;17.85;;;;;;;;;;5039325;28;20335;-80
2021/12/01 10:22:37;;;;;;;30.92;15.52;;;;;;;;;;5021459;28;20025;-78
2021/12/01 10:25:03;;;;;;;32.83;15.43;;;;;;;;;;5020673;28;20338;-79
2021/12/01 10:27:36;;;;;;;36.70;16.10;;;;;;;;;;5020929;28;20075;-78
2021/12/01 10:30:02;;;;;;;43.72;16.05;;;;;;;;;;5045490;23;20451;-79
2021/12/01 10:32:28;;;;;;;44.03;16.33;;;;;;;;;;5021239;28;20025;-79
2021/12/01 10:34:58;;;;;;;32.47;16.42;;;;;;;;;;5038664;28;20028;-78
2021/12/01 10:37:26;;;;;;;45.13;15.80;;;;;;;;;;5043981;22;20045;-79
2021/12/01 10:40:11;;;;;;;31.77;17.70;;;;;;;;;;5038358;28;20127;-78
2021/12/01 10:42:57;;;;;;;39.10;16.52;;;;;;;;;;5004096;28;20018;-79
2021/12/01 10:45:27;;;;;;;35.25;17.83;;;;;;;;;;5038285;28;20025;-79
2021/12/01 10:47:53;;;;;;;38.30;19.63;;;;;;;;;;5038220;28;20025;-79
2021/12/01 10:50:21;;;;;;;33.42;17.77;;;;;;;;;;5038037;28;20021;-80
2021/12/01 10:52:49;;;;;;;40.35;18.58;;;;;;;;;;5020623;28;20420;-79
2021/12/01 10:55:16;;;;;;;46.10;17.25;;;;;;;;;;5003818;28;20116;-79
2021/12/01 10:57:51;;;;;;;49.13;18.70;;;;;;;;;;5038022;28;20033;-79
2021/12/01 11:00:17;;;;;;;72.43;26.33;;;;;;;;;;5020288;28;20020;-79
2021/12/01 11:02:43;;;;;;;49.25;25.35;;;;;;;;;;5038465;28;20374;-79
2021/12/01 11:05:09;;;;;;;65.68;26.13;;;;;;;;;;5037747;28;20044;-79
2021/12/01 11:07:35;;;;;;;59.28;27.35;;;;;;;;;;5020153;28;20028;-79
2021/12/01 11:10:12;;;;;;;66.47;30.20;;;;;;;;;;5003554;28;20152;-79
2021/12/01 11:12:38;;;;;;;69.82;30.08;;;;;;;;;;5038079;28;20025;-79
2021/12/01 11:17:52;;;;;;;66.40;27.02;;;;;;;;;;5043502;22;20413;-78
2021/12/01 11:20:36;;;;;;;52.92;24.80;;;;;;;;;;5037794;28;20033;-78
2021/12/01 11:23:41;;;;;;;64.28;25.67;;;;;;;;;;5037786;28;20129;-78
2021/12/01 11:26:09;;;;;;;53.72;22.55;;;;;;;;;;4922156;29;20032;-79
2021/12/01 11:28:36;;;;;;;82.93;30.08;;;;;;;;;;4938049;29;20031;-78
2021/12/01 11:31:05;;;;;;;79.07;33.65;;;;;;;;;;4970697;28;20467;-79
2021/12/01 11:33:31;;;;;;;71.70;30.88;;;;;;;;;;5037529;28;20378;-79
2021/12/01 11:35:59;;;;;;;72.47;31.98;;;;;;;;;;5020183;28;20057;-79
2021/12/01 11:38:26;;;;;;;71.40;26.98;;;;;;;;;;5037641;28;20107;-79
2021/12/01 11:40:53;;;;;;;67.38;28.27;;;;;;;;;;5020299;28;20029;-79
2021/12/01 11:43:21;;;;;;;58.92;24.98;;;;;;;;;;5037035;28;20014;-79
2021/12/01 11:45:48;;;;;;;54.40;23.70;;;;;;;;;;5019637;28;20406;-79
2021/12/01 11:48:17;;;;;;;65.55;24.60;;;;;;;;;;5019821;28;20371;-79
2021/12/01 11:50:49;;;;;;;63.63;28.58;;;;;;;;;;5037164;28;20021;-79
2021/12/01 11:53:23;;;;;;;65.35;21.73;;;;;;;;;;5019769;28;20479;-79
2021/12/01 11:55:56;;;;;;;129.07;61.63;;;;;;;;;;5037428;28;20029;-79
2021/12/01 11:58:40;;;;;;;305.02;153.48;;;;;;;;;;5020841;28;20034;-79
2021/12/01 12:01:21;;;;;;;271.60;142.18;;;;;;;;;;5041159;28;20437;-79
2021/12/01 12:03:47;;;;;;;320.38;162.43;;;;;;;;;;5007370;28;20393;-81
2021/12/01 12:06:20;;;;;;;377.13;188.50;;;;;;;;;;5023863;28;20029;-79
2021/12/01 12:09:04;;;;;;;397.25;208.70;;;;;;;;;;5041385;28;20022;-81
2021/12/01 12:11:36;;;;;;;404.15;216.50;;;;;;;;;;5041429;28;20055;-81
2021/12/01 12:14:17;;;;;;;409.77;208.98;;;;;;;;;;5041318;28;20017;-79
2021/12/01 12:17:02;;;;;;;405.67;212.05;;;;;;;;;;5023547;28;20080;-79
2021/12/01 12:19:44;;;;;;;406.45;218.15;;;;;;;;;;5023074;28;20032;-79
2021/12/01 12:22:14;;;;;;;368.73;206.73;;;;;;;;;;5023134;28;20065;-79
2021/12/01 12:24:48;;;;;;;379.48;204.68;;;;;;;;;;5022882;28;20106;-79
2021/12/01 12:27:34;;;;;;;348.33;188.43;;;;;;;;;;5041064;28;20025;-79
2021/12/01 12:30:06;;;;;;;360.50;195.70;;;;;;;;;;5040854;28;20025;-79
2021/12/01 12:32:33;;;;;;;365.88;197.43;;;;;;;;;;5041175;28;20017;-80
2021/12/01 12:35:01;;;;;;;347.63;189.38;;;;;;;;;;5046409;23;20033;-79
2021/12/01 12:37:30;;;;;;;373.45;199.13;;;;;;;;;;5040512;28;20033;-79
2021/12/01 12:39:57;;;;;;;390.95;212.50;;;;;;;;;;5040921;28;20415;-79
2021/12/01 12:42:23;;;;;;;392.10;223.18;;;;;;;;;;5007041;28;20120;-81
2021/12/01 12:44:50;;;;;;;435.20;232.43;;;;;;;;;;5040769;28;20013;-79
2021/12/01 12:47:22;;;;;;;381.13;204.15;;;;;;;;;;5040714;28;20017;-79
2021/12/01 12:49:49;;;;;;;401.00;221.65;;;;;;;;;;5006952;28;20023;-79
2021/12/01 12:52:27;;;;;;;395.40;214.82;;;;;;;;;;5040661;28;20438;-79
2021/12/01 12:55:12;;;;;;;402.83;226.50;;;;;;;;;;5024122;28;20341;-80
2021/12/01 12:57:50;;;;;;;535.42;325.52;;;;;;;;;;5022846;28;20374;-79
2021/12/01 13:00:19;;;;;;;491.52;298.50;;;;;;;;;;5022307;28;20022;-79
2021/12/01 13:02:46;;;;;;;428.75;241.77;;;;;;;;;;5022634;28;20334;-79
2021/12/01 13:05:12;;;;;;;325.75;177.65;;;;;;;;;;5022550;28;20028;-79
2021/12/01 13:07:40;;;;;;;287.50;157.23;;;;;;;;;;5039668;28;20047;-78
2021/12/01 13:10:08;;;;;;;324.42;173.63;;;;;;;;;;5021670;28;20037;-81
2021/12/01 13:12:44;;;;;;;316.98;160.65;;;;;;;;;;5022104;28;20021;-81
2021/12/01 13:15:30;;;;;;;270.33;138.52;;;;;;;;;;5005874;28;20079;-79
2021/12/01 13:17:58;;;;;;;301.67;157.40;;;;;;;;;;5022092;28;20064;-81
2021/12/01 13:20:26;;;;;;;323.85;159.23;;;;;;;;;;5039571;28;20100;-81
2021/12/01 13:23:16;;;;;;;335.98;165.77;;;;;;;;;;5039410;28;20021;-81
2021/12/01 13:25:52;;;;;;;343.33;175.25;;;;;;;;;;5021822;28;20053;-81
2021/12/01 13:28:25;;;;;;;344.05;169.93;;;;;;;;;;5022107;28;20048;-81
2021/12/01 13:31:02;;;;;;;270.27;139.02;;;;;;;;;;5039014;28;20030;-82
2021/12/01 13:33:28;;;;;;;256.73;133.90;;;;;;;;;;5039352;28;20022;-81
2021/12/01 13:35:54;;;;;;;233.25;127.30;;;;;;;;;;5039644;28;20029;-81
2021/12/01 13:38:34;;;;;;;201.63;111.38;;;;;;;;;;5039091;28;20400;-81
2021/12/01 13:41:14;;;;;;;219.43;118.70;;;;;;;;;;5021926;28;20113;-78
2021/12/01 13:43:41;;;;;;;220.30;102.38;;;;;;;;;;5040165;28;20041;-81
2021/12/01 13:46:07;;;;;;;307.30;146.10;;;;;;;;;;5005468;28;20027;-81
2021/12/01 13:48:34;;;;;;;347.15;164.23;;;;;;;;;;5022171;28;20022;-81
2021/12/01 13:51:13;;;;;;;223.32;115.85;;;;;;;;;;5039068;28;20021;-81
2021/12/01 13:53:40;;;;;;;207.95;103.70;;;;;;;;;;5039130;28;20063;-81
2021/12/01 13:56:07;;;;;;;300.63;163.27;;;;;;;;;;5021447;28;20052;-82
2021/12/01 13:58:33;;;;;;;341.38;182.07;;;;;;;;;;5021374;28;20082;-81
2021/12/01 14:01:03;;;;;;;304.90;164.13;;;;;;;;;;5039258;28;20033;-81
2021/12/01 14:03:30;;;;;;;267.33;138.40;;;;;;;;;;5027188;23;20041;-81
2021/12/01 14:05:57;;;;;;;208.52;109.57;;;;;;;;;;5039168;28;20261;-81
2021/12/01 14:08:29;;;;;;;210.45;107.82;;;;;;;;;;5038987;28;20024;-81
2021/12/01 14:11:14;;;;;;;219.20;115.63;;;;;;;;;;5004774;28;20017;-78
2021/12/01 14:13:40;;;;;;;218.05;108.43;;;;;;;;;;5021388;28;20025;-81
2021/12/01 14:16:06;;;;;;;236.70;124.35;;;;;;;;;;5038887;28;20017;-81
2021/12/01 14:18:32;;;;;;;260.15;135.70;;;;;;;;;;5043611;23;20096;-81
2021/12/01 14:21:12;;;;;;;250.27;128.98;;;;;;;;;;5037819;28;20443;-81
2021/12/01 14:23:38;;;;;;;251.13;130.32;;;;;;;;;;5020952;28;20332;-81
2021/12/01 14:26:05;;;;;;;251.77;135.90;;;;;;;;;;5004698;28;20025;-81
2021/12/01 14:28:32;;;;;;;217.38;120.90;;;;;;;;;;5038207;28;20441;-81
2021/12/01 14:31:00;;;;;;;201.75;114.75;;;;;;;;;;5004838;28;20037;-81
2021/12/01 14:33:26;;;;;;;153.70;79.88;;;;;;;;;;5043533;23;20037;-81
2021/12/01 14:36:01;;;;;;;163.30;78.15;;;;;;;;;;5038799;28;20021;-81
2021/12/01 14:38:27;;;;;;;145.05;75.32;;;;;;;;;;5038914;28;20049;-81
2021/12/01 14:40:55;;;;;;;158.68;78.97;;;;;;;;;;5020171;28;20017;-78
2021/12/01 14:43:25;;;;;;;155.63;78.47;;;;;;;;;;5038486;28;20040;-81
2021/12/01 14:45:51;;;;;;;168.90;87.55;;;;;;;;;;5020540;28;20028;-81
2021/12/01 14:48:17;;;;;;;175.80;89.88;;;;;;;;;;5038429;28;20048;-81
2021/12/01 14:50:48;;;;;;;183.55;92.43;;;;;;;;;;5038750;28;20060;-81
2021/12/01 14:53:15;;;;;;;183.73;94.93;;;;;;;;;;5020654;28;20021;-81
2021/12/01 14:55:44;;;;;;;182.80;95.53;;;;;;;;;;5038755;28;20017;-81
2021/12/01 14:58:12;;;;;;;183.65;96.57;;;;;;;;;;5021441;28;20036;-81
2021/12/01 15:00:40;;;;;;;166.50;89.00;;;;;;;;;;5038711;28;20021;-81
2021/12/01 15:03:18;;;;;;;163.70;87.72;;;;;;;;;;5037656;28;20014;-81
2021/12/01 15:05:55;;;;;;;176.65;95.50;;;;;;;;;;5038166;28;20025;-78
2021/12/01 15:08:36;;;;;;;174.40;90.93;;;;;;;;;;5037969;28;20013;-81
2021/12/01 15:11:02;;;;;;;206.70;95.72;;;;;;;;;;5037387;28;20017;-82
2021/12/01 15:13:30;;;;;;;232.43;108.25;;;;;;;;;;5020659;28;20017;-81
2021/12/01 15:16:04;;;;;;;237.68;109.53;;;;;;;;;;5020776;28;20028;-81
2021/12/01 15:18:32;;;;;;;224.25;112.20;;;;;;;;;;5037428;28;20033;-81
2021/12/01 15:21:04;;;;;;;220.43;106.53;;;;;;;;;;5003542;28;20031;-81
2021/12/01 15:23:48;;;;;;;175.95;83.95;;;;;;;;;;5037552;28;20018;-81
2021/12/01 15:26:16;;;;;;;203.05;99.75;;;;;;;;;;5003792;28;20021;-81
2021/12/01 15:28:47;;;;;;;199.52;98.68;;;;;;;;;;5037247;28;20017;-81
2021/12/01 15:31:13;;;;;;;127.60;67.65;;;;;;;;;;5020393;28;20029;-81
2021/12/01 15:33:39;;;;;;;122.70;61.35;;;;;;;;;;5003528;28;20438;-81